sensor_id;sensor_type;location;lat;lon;timestamp;temperature;humidity
21123;DHT22;10719;48.130;11.630;2024-01-27T00:01:33;3.60;99.90
21123;DHT22;10719;48.130;11.630;2024-01-27T00:03:59;3.60;99.90
21123;DHT22;10719;48.130;11.630;2024-01-27T00:06:24;3.50;99.90
21123;DHT22;10719;48.130;11.630;2024-01-27T00:08:50;3.60;99.90
21123;DHT22;10719;48.130;11.630;2024-01-27T00:11:16;3.50;99.90
21123;DHT22;10719;48.130;11.630;2024-01-27T00:13:42;3.40;99.90
21123;DHT22;10719;48.130;11.630;2024-01-27T00:16:08;3.40;99.90
21123;DHT22;10719;48.130;11.630;2024-01-27T00:18:36;3.40;99.90
21123;DHT22;10719;48.130;11.630;2024-01-27T00:21:02;3.40;99.90
21123;DHT22;10719;48.130;11.630;2024-01-27T00:23:28;3.40;99.90
21123;DHT22;10719;48.130;11.630;2024-01-27T00:25:53;3.50;99.90
21123;DHT22;10719;48.130;11.630;2024-01-27T00:28:19;3.50;99.90
21123;DHT22;10719;48.130;11.630;2024-01-27T00:30:44;3.50;99.90
21123;DHT22;10719;48.130;11.630;2024-01-27T00:33:10;3.50;99.90
21123;DHT22;10719;48.130;11.630;2024-01-27T00:35:35;3.40;99.90
21123;DHT22;10719;48.130;11.630;2024-01-27T00:38:01;3.50;99.90
21123;DHT22;10719;48.130;11.630;2024-01-27T00:40:27;3.40;99.90
21123;DHT22;10719;48.130;11.630;2024-01-27T00:42:52;3.40;99.90
21123;DHT22;10719;48.130;11.630;2024-01-27T00:45:19;3.40;99.90
21123;DHT22;10719;48.130;11.630;2024-01-27T00:47:45;3.40;99.90
21123;DHT22;10719;48.130;11.630;2024-01-27T00:50:11;3.40;99.90
21123;DHT22;10719;48.130;11.630;2024-01-27T00:52:36;3.40;99.90
21123;DHT22;10719;48.130;11.630;2024-01-27T00:55:02;3.50;99.90
21123;DHT22;10719;48.130;11.630;2024-01-27T00:57:28;3.40;99.90
21123;DHT22;10719;48.130;11.630;2024-01-27T00:59:54;3.50;99.90
21123;DHT22;10719;48.130;11.630;2024-01-27T01:02:19;3.50;99.90
21123;DHT22;10719;48.130;11.630;2024-01-27T01:04:45;3.50;99.90
21123;DHT22;10719;48.130;11.630;2024-01-27T01:07:10;3.50;99.90
21123;DHT22;10719;48.130;11.630;2024-01-27T01:09:36;3.50;99.90
21123;DHT22;10719;48.130;11.630;2024-01-27T01:12:02;3.50;99.90
21123;DHT22;10719;48.130;11.630;2024-01-27T01:14:27;3.50;99.90
21123;DHT22;10719;48.130;11.630;2024-01-27T01:16:53;3.50;99.90
21123;DHT22;10719;48.130;11.630;2024-01-27T01:19:19;3.50;99.90
21123;DHT22;10719;48.130;11.630;2024-01-27T01:21:44;3.50;99.90
21123;DHT22;10719;48.130;11.630;2024-01-27T01:24:10;3.40;99.90
21123;DHT22;10719;48.130;11.630;2024-01-27T01:26:35;3.40;99.90
21123;DHT22;10719;48.130;11.630;2024-01-27T01:29:01;3.30;99.90
21123;DHT22;10719;48.130;11.630;2024-01-27T01:31:27;3.30;99.90
21123;DHT22;10719;48.130;11.630;2024-01-27T01:33:52;3.30;99.90
21123;DHT22;10719;48.130;11.630;2024-01-27T01:36:18;3.20;99.90
21123;DHT22;10719;48.130;11.630;2024-01-27T01:38:43;3.10;99.90
21123;DHT22;10719;48.130;11.630;2024-01-27T01:41:09;3.00;99.90
21123;DHT22;10719;48.130;11.630;2024-01-27T01:43:35;2.90;99.90
21123;DHT22;10719;48.130;11.630;2024-01-27T01:46:00;2.80;99.90
21123;DHT22;10719;48.130;11.630;2024-01-27T01:48:26;2.70;99.90
21123;DHT22;10719;48.130;11.630;2024-01-27T01:50:52;2.70;99.90
21123;DHT22;10719;48.130;11.630;2024-01-27T01:53:18;2.80;99.90
21123;DHT22;10719;48.130;11.630;2024-01-27T01:55:44;2.70;99.90
21123;DHT22;10719;48.130;11.630;2024-01-27T01:58:09;2.80;99.90
21123;DHT22;10719;48.130;11.630;2024-01-27T02:00:35;2.80;99.90
21123;DHT22;10719;48.130;11.630;2024-01-27T02:03:00;2.80;99.90
21123;DHT22;10719;48.130;11.630;2024-01-27T02:05:26;2.70;99.90
21123;DHT22;10719;48.130;11.630;2024-01-27T02:07:51;2.70;99.90
21123;DHT22;10719;48.130;11.630;2024-01-27T02:10:30;2.70;99.90
21123;DHT22;10719;48.130;11.630;2024-01-27T02:13:03;2.70;99.90
21123;DHT22;10719;48.130;11.630;2024-01-27T02:15:29;2.70;99.90
21123;DHT22;10719;48.130;11.630;2024-01-27T02:17:54;2.70;99.90
21123;DHT22;10719;48.130;11.630;2024-01-27T02:20:20;2.70;99.90
21123;DHT22;10719;48.130;11.630;2024-01-27T02:22:45;2.70;99.90
21123;DHT22;10719;48.130;11.630;2024-01-27T02:25:11;2.70;99.90
21123;DHT22;10719;48.130;11.630;2024-01-27T02:27:36;2.70;99.90
21123;DHT22;10719;48.130;11.630;2024-01-27T02:30:02;2.60;99.90
21123;DHT22;10719;48.130;11.630;2024-01-27T02:32:28;2.60;99.90
21123;DHT22;10719;48.130;11.630;2024-01-27T02:34:53;2.60;99.90
21123;DHT22;10719;48.130;11.630;2024-01-27T02:37:19;2.60;99.90
21123;DHT22;10719;48.130;11.630;2024-01-27T02:39:45;2.60;99.90
21123;DHT22;10719;48.130;11.630;2024-01-27T02:42:10;2.70;99.90
21123;DHT22;10719;48.130;11.630;2024-01-27T02:44:36;2.70;99.90
21123;DHT22;10719;48.130;11.630;2024-01-27T02:47:01;2.70;99.90
21123;DHT22;10719;48.130;11.630;2024-01-27T02:49:27;2.70;99.90
21123;DHT22;10719;48.130;11.630;2024-01-27T02:51:53;2.70;99.90
21123;DHT22;10719;48.130;11.630;2024-01-27T02:54:18;2.70;99.90
21123;DHT22;10719;48.130;11.630;2024-01-27T02:56:44;2.60;99.90
21123;DHT22;10719;48.130;11.630;2024-01-27T02:59:11;2.70;99.90
21123;DHT22;10719;48.130;11.630;2024-01-27T03:01:37;2.70;99.90
21123;DHT22;10719;48.130;11.630;2024-01-27T03:04:02;2.60;99.90
21123;DHT22;10719;48.130;11.630;2024-01-27T03:06:29;2.60;99.90
21123;DHT22;10719;48.130;11.630;2024-01-27T03:08:54;2.70;99.90
21123;DHT22;10719;48.130;11.630;2024-01-27T03:11:20;2.60;99.90
21123;DHT22;10719;48.130;11.630;2024-01-27T03:13:46;2.60;99.90
21123;DHT22;10719;48.130;11.630;2024-01-27T03:16:12;2.60;99.90
21123;DHT22;10719;48.130;11.630;2024-01-27T03:18:38;2.60;99.90
21123;DHT22;10719;48.130;11.630;2024-01-27T03:21:06;2.60;99.90
21123;DHT22;10719;48.130;11.630;2024-01-27T03:23:32;2.60;99.90
21123;DHT22;10719;48.130;11.630;2024-01-27T03:25:58;2.60;99.90
21123;DHT22;10719;48.130;11.630;2024-01-27T03:28:23;2.50;99.90
21123;DHT22;10719;48.130;11.630;2024-01-27T03:30:49;2.50;99.90
21123;DHT22;10719;48.130;11.630;2024-01-27T03:33:14;2.50;99.90
21123;DHT22;10719;48.130;11.630;2024-01-27T03:35:40;2.60;99.90
21123;DHT22;10719;48.130;11.630;2024-01-27T03:38:06;2.60;99.90
21123;DHT22;10719;48.130;11.630;2024-01-27T03:40:31;2.50;99.90
21123;DHT22;10719;48.130;11.630;2024-01-27T03:42:57;2.50;99.90
21123;DHT22;10719;48.130;11.630;2024-01-27T03:45:22;2.40;99.90
21123;DHT22;10719;48.130;11.630;2024-01-27T03:47:48;2.50;99.90
21123;DHT22;10719;48.130;11.630;2024-01-27T03:50:14;2.50;99.90
21123;DHT22;10719;48.130;11.630;2024-01-27T03:52:39;2.60;99.90
21123;DHT22;10719;48.130;11.630;2024-01-27T03:55:05;2.60;99.90
21123;DHT22;10719;48.130;11.630;2024-01-27T03:57:31;2.60;99.90
21123;DHT22;10719;48.130;11.630;2024-01-27T03:59:56;2.60;99.90
21123;DHT22;10719;48.130;11.630;2024-01-27T04:02:22;2.70;99.90
21123;DHT22;10719;48.130;11.630;2024-01-27T04:04:48;2.70;99.90
21123;DHT22;10719;48.130;11.630;2024-01-27T04:07:13;2.70;99.90
21123;DHT22;10719;48.130;11.630;2024-01-27T04:09:39;2.70;99.90
21123;DHT22;10719;48.130;11.630;2024-01-27T04:12:05;2.70;99.90
21123;DHT22;10719;48.130;11.630;2024-01-27T04:14:30;2.70;99.90
21123;DHT22;10719;48.130;11.630;2024-01-27T04:16:56;2.70;99.90
21123;DHT22;10719;48.130;11.630;2024-01-27T04:19:21;2.70;99.90
21123;DHT22;10719;48.130;11.630;2024-01-27T04:21:47;2.70;99.90
21123;DHT22;10719;48.130;11.630;2024-01-27T04:24:13;2.60;99.90
21123;DHT22;10719;48.130;11.630;2024-01-27T04:26:38;2.60;99.90
21123;DHT22;10719;48.130;11.630;2024-01-27T04:29:04;2.60;99.90
21123;DHT22;10719;48.130;11.630;2024-01-27T04:31:29;2.60;99.90
21123;DHT22;10719;48.130;11.630;2024-01-27T04:33:57;2.60;99.90
21123;DHT22;10719;48.130;11.630;2024-01-27T04:36:29;2.60;99.90
21123;DHT22;10719;48.130;11.630;2024-01-27T04:38:55;2.60;99.90
21123;DHT22;10719;48.130;11.630;2024-01-27T04:41:21;2.60;99.90
21123;DHT22;10719;48.130;11.630;2024-01-27T04:43:47;2.50;99.90
21123;DHT22;10719;48.130;11.630;2024-01-27T04:46:12;2.50;99.90
21123;DHT22;10719;48.130;11.630;2024-01-27T04:48:38;2.50;99.90
21123;DHT22;10719;48.130;11.630;2024-01-27T04:51:04;2.40;99.90
21123;DHT22;10719;48.130;11.630;2024-01-27T04:53:29;2.40;99.90
21123;DHT22;10719;48.130;11.630;2024-01-27T04:55:55;2.40;99.90
21123;DHT22;10719;48.130;11.630;2024-01-27T04:58:20;2.40;99.90
21123;DHT22;10719;48.130;11.630;2024-01-27T05:00:46;2.40;99.90
21123;DHT22;10719;48.130;11.630;2024-01-27T05:03:12;2.40;99.90
21123;DHT22;10719;48.130;11.630;2024-01-27T05:05:42;2.40;99.90
21123;DHT22;10719;48.130;11.630;2024-01-27T05:08:09;2.40;99.90
21123;DHT22;10719;48.130;11.630;2024-01-27T05:10:35;2.40;99.90
21123;DHT22;10719;48.130;11.630;2024-01-27T05:13:01;2.40;99.90
21123;DHT22;10719;48.130;11.630;2024-01-27T05:15:27;2.40;99.90
21123;DHT22;10719;48.130;11.630;2024-01-27T05:17:52;2.30;99.90
21123;DHT22;10719;48.130;11.630;2024-01-27T05:20:18;2.30;99.90
21123;DHT22;10719;48.130;11.630;2024-01-27T05:22:44;2.30;99.90
21123;DHT22;10719;48.130;11.630;2024-01-27T05:25:10;2.20;99.90
21123;DHT22;10719;48.130;11.630;2024-01-27T05:27:39;2.30;99.90
21123;DHT22;10719;48.130;11.630;2024-01-27T05:30:06;2.30;99.90
21123;DHT22;10719;48.130;11.630;2024-01-27T05:32:32;2.30;99.90
21123;DHT22;10719;48.130;11.630;2024-01-27T05:34:57;2.20;99.90
21123;DHT22;10719;48.130;11.630;2024-01-27T05:37:23;2.20;99.90
21123;DHT22;10719;48.130;11.630;2024-01-27T05:39:48;2.20;99.90
21123;DHT22;10719;48.130;11.630;2024-01-27T05:42:14;2.20;99.90
21123;DHT22;10719;48.130;11.630;2024-01-27T05:44:40;2.20;99.90
21123;DHT22;10719;48.130;11.630;2024-01-27T05:47:06;2.30;99.90
21123;DHT22;10719;48.130;11.630;2024-01-27T05:49:32;2.20;99.90
21123;DHT22;10719;48.130;11.630;2024-01-27T05:51:57;2.20;99.90
21123;DHT22;10719;48.130;11.630;2024-01-27T05:54:24;2.20;99.90
21123;DHT22;10719;48.130;11.630;2024-01-27T05:56:49;2.20;99.90
21123;DHT22;10719;48.130;11.630;2024-01-27T05:59:15;2.20;99.90
21123;DHT22;10719;48.130;11.630;2024-01-27T06:01:41;2.10;99.90
21123;DHT22;10719;48.130;11.630;2024-01-27T06:04:08;2.10;99.90
21123;DHT22;10719;48.130;11.630;2024-01-27T06:06:34;2.10;99.90
21123;DHT22;10719;48.130;11.630;2024-01-27T06:09:00;2.10;99.90
21123;DHT22;10719;48.130;11.630;2024-01-27T06:11:25;2.10;99.90
21123;DHT22;10719;48.130;11.630;2024-01-27T06:13:51;2.00;99.90
21123;DHT22;10719;48.130;11.630;2024-01-27T06:16:20;2.00;99.90
21123;DHT22;10719;48.130;11.630;2024-01-27T06:18:45;2.00;99.90
21123;DHT22;10719;48.130;11.630;2024-01-27T06:21:11;2.10;99.90
21123;DHT22;10719;48.130;11.630;2024-01-27T06:23:37;2.00;99.90
21123;DHT22;10719;48.130;11.630;2024-01-27T06:26:09;1.90;99.90
21123;DHT22;10719;48.130;11.630;2024-01-27T06:28:35;1.90;99.90
21123;DHT22;10719;48.130;11.630;2024-01-27T06:31:04;1.90;99.90
21123;DHT22;10719;48.130;11.630;2024-01-27T06:33:30;2.00;99.90
21123;DHT22;10719;48.130;11.630;2024-01-27T06:35:56;2.00;99.90
21123;DHT22;10719;48.130;11.630;2024-01-27T06:38:21;1.90;99.90
21123;DHT22;10719;48.130;11.630;2024-01-27T06:40:47;1.90;99.90
21123;DHT22;10719;48.130;11.630;2024-01-27T06:43:13;1.90;99.90
21123;DHT22;10719;48.130;11.630;2024-01-27T06:45:39;1.90;99.90
21123;DHT22;10719;48.130;11.630;2024-01-27T06:48:06;1.90;99.90
21123;DHT22;10719;48.130;11.630;2024-01-27T06:50:32;1.80;99.90
21123;DHT22;10719;48.130;11.630;2024-01-27T06:52:58;1.80;99.90
21123;DHT22;10719;48.130;11.630;2024-01-27T06:55:24;1.80;99.90
21123;DHT22;10719;48.130;11.630;2024-01-27T06:57:49;1.90;99.90
21123;DHT22;10719;48.130;11.630;2024-01-27T07:00:16;1.90;99.90
21123;DHT22;10719;48.130;11.630;2024-01-27T07:02:42;1.90;99.90
21123;DHT22;10719;48.130;11.630;2024-01-27T07:05:08;1.80;99.90
21123;DHT22;10719;48.130;11.630;2024-01-27T07:07:34;1.80;99.90
21123;DHT22;10719;48.130;11.630;2024-01-27T07:09:59;1.80;99.90
21123;DHT22;10719;48.130;11.630;2024-01-27T07:12:25;1.80;99.90
21123;DHT22;10719;48.130;11.630;2024-01-27T07:14:51;1.80;99.90
21123;DHT22;10719;48.130;11.630;2024-01-27T07:17:17;1.80;99.90
21123;DHT22;10719;48.130;11.630;2024-01-27T07:19:43;1.80;99.90
21123;DHT22;10719;48.130;11.630;2024-01-27T07:22:09;1.90;99.90
21123;DHT22;10719;48.130;11.630;2024-01-27T07:24:34;1.90;99.90
21123;DHT22;10719;48.130;11.630;2024-01-27T07:27:01;1.90;99.90
21123;DHT22;10719;48.130;11.630;2024-01-27T07:29:27;1.90;99.90
21123;DHT22;10719;48.130;11.630;2024-01-27T07:31:53;2.00;99.90
21123;DHT22;10719;48.130;11.630;2024-01-27T07:34:18;2.00;99.90
21123;DHT22;10719;48.130;11.630;2024-01-27T07:36:45;2.00;99.90
21123;DHT22;10719;48.130;11.630;2024-01-27T07:39:11;1.90;99.90
21123;DHT22;10719;48.130;11.630;2024-01-27T07:41:37;1.90;99.90
21123;DHT22;10719;48.130;11.630;2024-01-27T07:44:08;1.90;99.90
21123;DHT22;10719;48.130;11.630;2024-01-27T07:46:35;1.80;99.90
21123;DHT22;10719;48.130;11.630;2024-01-27T07:49:01;1.60;99.90
21123;DHT22;10719;48.130;11.630;2024-01-27T07:51:28;1.40;99.90
21123;DHT22;10719;48.130;11.630;2024-01-27T07:53:54;1.30;99.90
21123;DHT22;10719;48.130;11.630;2024-01-27T07:56:19;1.20;99.90
21123;DHT22;10719;48.130;11.630;2024-01-27T07:58:45;1.20;99.90
21123;DHT22;10719;48.130;11.630;2024-01-27T08:01:14;1.20;99.90
21123;DHT22;10719;48.130;11.630;2024-01-27T08:03:41;1.20;99.90
21123;DHT22;10719;48.130;11.630;2024-01-27T08:06:07;1.20;99.90
21123;DHT22;10719;48.130;11.630;2024-01-27T08:08:35;1.20;99.90
21123;DHT22;10719;48.130;11.630;2024-01-27T08:11:01;1.20;99.90
21123;DHT22;10719;48.130;11.630;2024-01-27T08:13:26;1.20;99.90
21123;DHT22;10719;48.130;11.630;2024-01-27T08:15:52;1.20;99.90
21123;DHT22;10719;48.130;11.630;2024-01-27T08:18:17;1.20;99.90
21123;DHT22;10719;48.130;11.630;2024-01-27T08:20:43;1.30;99.90
21123;DHT22;10719;48.130;11.630;2024-01-27T08:23:09;1.30;99.90
21123;DHT22;10719;48.130;11.630;2024-01-27T08:25:34;1.30;99.90
21123;DHT22;10719;48.130;11.630;2024-01-27T08:28:00;1.40;99.90
21123;DHT22;10719;48.130;11.630;2024-01-27T08:30:25;1.40;99.90
21123;DHT22;10719;48.130;11.630;2024-01-27T08:32:51;1.50;99.90
21123;DHT22;10719;48.130;11.630;2024-01-27T08:35:17;1.60;99.90
21123;DHT22;10719;48.130;11.630;2024-01-27T08:37:42;1.60;99.90
21123;DHT22;10719;48.130;11.630;2024-01-27T08:40:08;1.70;99.90
21123;DHT22;10719;48.130;11.630;2024-01-27T08:42:34;1.70;99.90
21123;DHT22;10719;48.130;11.630;2024-01-27T08:45:00;1.80;99.90
21123;DHT22;10719;48.130;11.630;2024-01-27T08:47:25;1.80;99.90
21123;DHT22;10719;48.130;11.630;2024-01-27T08:49:51;1.90;99.90
21123;DHT22;10719;48.130;11.630;2024-01-27T08:52:17;2.00;99.90
21123;DHT22;10719;48.130;11.630;2024-01-27T08:54:42;2.10;99.90
21123;DHT22;10719;48.130;11.630;2024-01-27T08:57:08;2.20;99.90
21123;DHT22;10719;48.130;11.630;2024-01-27T08:59:34;2.30;99.90
21123;DHT22;10719;48.130;11.630;2024-01-27T09:02:01;2.40;99.90
21123;DHT22;10719;48.130;11.630;2024-01-27T09:04:26;2.40;99.90
21123;DHT22;10719;48.130;11.630;2024-01-27T09:06:52;2.60;99.90
21123;DHT22;10719;48.130;11.630;2024-01-27T09:09:18;2.80;99.90
21123;DHT22;10719;48.130;11.630;2024-01-27T09:11:44;2.90;99.90
21123;DHT22;10719;48.130;11.630;2024-01-27T09:14:11;2.90;99.90
21123;DHT22;10719;48.130;11.630;2024-01-27T09:16:36;2.90;99.90
21123;DHT22;10719;48.130;11.630;2024-01-27T09:19:02;3.00;99.90
21123;DHT22;10719;48.130;11.630;2024-01-27T09:21:27;3.10;99.90
21123;DHT22;10719;48.130;11.630;2024-01-27T09:23:54;3.20;99.90
21123;DHT22;10719;48.130;11.630;2024-01-27T09:26:20;3.20;99.90
21123;DHT22;10719;48.130;11.630;2024-01-27T09:28:45;3.30;99.90
21123;DHT22;10719;48.130;11.630;2024-01-27T09:31:22;3.30;99.90
21123;DHT22;10719;48.130;11.630;2024-01-27T09:33:49;3.40;99.90
21123;DHT22;10719;48.130;11.630;2024-01-27T09:36:16;3.40;99.90
21123;DHT22;10719;48.130;11.630;2024-01-27T09:38:42;3.50;99.90
21123;DHT22;10719;48.130;11.630;2024-01-27T09:41:08;3.50;99.90
21123;DHT22;10719;48.130;11.630;2024-01-27T09:43:37;3.50;99.90
21123;DHT22;10719;48.130;11.630;2024-01-27T09:46:03;3.50;99.90
21123;DHT22;10719;48.130;11.630;2024-01-27T09:48:29;3.60;99.90
21123;DHT22;10719;48.130;11.630;2024-01-27T09:50:58;3.60;99.90
21123;DHT22;10719;48.130;11.630;2024-01-27T09:53:23;3.70;99.90
21123;DHT22;10719;48.130;11.630;2024-01-27T09:55:49;3.70;99.90
21123;DHT22;10719;48.130;11.630;2024-01-27T09:58:15;3.60;99.90
21123;DHT22;10719;48.130;11.630;2024-01-27T10:00:41;3.60;99.90
21123;DHT22;10719;48.130;11.630;2024-01-27T10:03:07;3.80;99.90
21123;DHT22;10719;48.130;11.630;2024-01-27T10:05:34;3.80;99.90
21123;DHT22;10719;48.130;11.630;2024-01-27T10:08:01;3.80;99.90
21123;DHT22;10719;48.130;11.630;2024-01-27T10:10:26;3.90;99.90
21123;DHT22;10719;48.130;11.630;2024-01-27T10:12:52;3.90;99.90
21123;DHT22;10719;48.130;11.630;2024-01-27T10:15:21;3.90;99.90
21123;DHT22;10719;48.130;11.630;2024-01-27T10:17:48;4.00;99.90
21123;DHT22;10719;48.130;11.630;2024-01-27T10:20:13;4.10;99.90
21123;DHT22;10719;48.130;11.630;2024-01-27T10:22:42;4.10;99.90
21123;DHT22;10719;48.130;11.630;2024-01-27T10:25:09;4.20;99.90
21123;DHT22;10719;48.130;11.630;2024-01-27T10:27:37;4.20;99.90
21123;DHT22;10719;48.130;11.630;2024-01-27T10:30:04;4.30;99.90
21123;DHT22;10719;48.130;11.630;2024-01-27T10:32:30;4.30;99.90
21123;DHT22;10719;48.130;11.630;2024-01-27T10:35:03;4.40;99.90
21123;DHT22;10719;48.130;11.630;2024-01-27T10:37:28;4.50;99.90
21123;DHT22;10719;48.130;11.630;2024-01-27T10:40:04;4.60;99.90
21123;DHT22;10719;48.130;11.630;2024-01-27T10:42:37;4.80;99.90
21123;DHT22;10719;48.130;11.630;2024-01-27T10:45:04;4.80;99.90
21123;DHT22;10719;48.130;11.630;2024-01-27T10:47:31;5.70;99.90
21123;DHT22;10719;48.130;11.630;2024-01-27T10:49:59;6.50;99.90
21123;DHT22;10719;48.130;11.630;2024-01-27T10:52:28;6.80;99.90
21123;DHT22;10719;48.130;11.630;2024-01-27T10:55:04;6.90;99.90
21123;DHT22;10719;48.130;11.630;2024-01-27T10:57:36;7.30;99.90
21123;DHT22;10719;48.130;11.630;2024-01-27T11:00:03;7.80;99.90
21123;DHT22;10719;48.130;11.630;2024-01-27T11:02:35;8.10;99.90
21123;DHT22;10719;48.130;11.630;2024-01-27T11:05:05;8.10;99.90
21123;DHT22;10719;48.130;11.630;2024-01-27T11:07:33;7.20;99.90
21123;DHT22;10719;48.130;11.630;2024-01-27T11:09:59;6.60;99.90
21123;DHT22;10719;48.130;11.630;2024-01-27T11:12:26;6.10;99.90
21123;DHT22;10719;48.130;11.630;2024-01-27T11:14:52;5.90;99.90
21123;DHT22;10719;48.130;11.630;2024-01-27T11:17:19;5.90;99.90
21123;DHT22;10719;48.130;11.630;2024-01-27T11:19:45;6.10;99.90
21123;DHT22;10719;48.130;11.630;2024-01-27T11:22:29;6.20;99.90
21123;DHT22;10719;48.130;11.630;2024-01-27T11:27:37;6.60;99.90
21123;DHT22;10719;48.130;11.630;2024-01-27T11:30:04;6.70;99.90
21123;DHT22;10719;48.130;11.630;2024-01-27T11:32:31;7.00;99.90
21123;DHT22;10719;48.130;11.630;2024-01-27T11:34:56;7.00;99.90
21123;DHT22;10719;48.130;11.630;2024-01-27T11:37:23;6.80;99.90
21123;DHT22;10719;48.130;11.630;2024-01-27T11:39:51;6.80;99.90
21123;DHT22;10719;48.130;11.630;2024-01-27T11:42:17;6.80;99.90
21123;DHT22;10719;48.130;11.630;2024-01-27T11:44:43;6.80;99.90
21123;DHT22;10719;48.130;11.630;2024-01-27T11:47:17;6.60;99.90
21123;DHT22;10719;48.130;11.630;2024-01-27T11:49:50;6.60;99.90
21123;DHT22;10719;48.130;11.630;2024-01-27T11:52:20;6.60;99.90
21123;DHT22;10719;48.130;11.630;2024-01-27T11:54:45;6.70;99.90
21123;DHT22;10719;48.130;11.630;2024-01-27T11:57:11;6.60;99.90
21123;DHT22;10719;48.130;11.630;2024-01-27T11:59:37;6.60;99.90
21123;DHT22;10719;48.130;11.630;2024-01-27T12:02:02;6.50;99.90
21123;DHT22;10719;48.130;11.630;2024-01-27T12:04:29;6.30;99.90
21123;DHT22;10719;48.130;11.630;2024-01-27T12:06:54;6.30;99.90
21123;DHT22;10719;48.130;11.630;2024-01-27T12:09:20;6.30;99.90
21123;DHT22;10719;48.130;11.630;2024-01-27T12:11:45;6.30;99.90
21123;DHT22;10719;48.130;11.630;2024-01-27T12:14:11;6.30;99.90
21123;DHT22;10719;48.130;11.630;2024-01-27T12:16:38;6.40;99.90
21123;DHT22;10719;48.130;11.630;2024-01-27T12:19:03;6.60;99.90
21123;DHT22;10719;48.130;11.630;2024-01-27T12:21:29;6.60;99.90
21123;DHT22;10719;48.130;11.630;2024-01-27T12:23:56;6.50;99.90
21123;DHT22;10719;48.130;11.630;2024-01-27T12:26:24;6.30;99.90
21123;DHT22;10719;48.130;11.630;2024-01-27T12:28:50;6.40;99.90
21123;DHT22;10719;48.130;11.630;2024-01-27T12:31:16;6.40;99.90
21123;DHT22;10719;48.130;11.630;2024-01-27T12:33:50;6.50;99.90
21123;DHT22;10719;48.130;11.630;2024-01-27T12:36:18;6.50;99.90
21123;DHT22;10719;48.130;11.630;2024-01-27T12:39:03;6.40;99.90
21123;DHT22;10719;48.130;11.630;2024-01-27T12:41:30;6.30;99.90
21123;DHT22;10719;48.130;11.630;2024-01-27T12:43:58;6.20;99.90
21123;DHT22;10719;48.130;11.630;2024-01-27T12:46:24;6.30;99.90
21123;DHT22;10719;48.130;11.630;2024-01-27T12:48:49;6.20;99.90
21123;DHT22;10719;48.130;11.630;2024-01-27T12:51:15;6.20;99.90
21123;DHT22;10719;48.130;11.630;2024-01-27T12:53:43;6.20;99.90
21123;DHT22;10719;48.130;11.630;2024-01-27T12:56:14;6.40;99.90
21123;DHT22;10719;48.130;11.630;2024-01-27T12:58:40;6.50;99.90
21123;DHT22;10719;48.130;11.630;2024-01-27T13:01:07;6.50;99.90
21123;DHT22;10719;48.130;11.630;2024-01-27T13:03:33;6.60;99.90
21123;DHT22;10719;48.130;11.630;2024-01-27T13:05:59;6.40;99.90
21123;DHT22;10719;48.130;11.630;2024-01-27T13:08:24;6.30;99.90
21123;DHT22;10719;48.130;11.630;2024-01-27T13:10:50;6.40;99.90
21123;DHT22;10719;48.130;11.630;2024-01-27T13:13:16;6.60;99.90
21123;DHT22;10719;48.130;11.630;2024-01-27T13:15:42;6.80;99.90
21123;DHT22;10719;48.130;11.630;2024-01-27T13:18:11;7.70;99.90
21123;DHT22;10719;48.130;11.630;2024-01-27T13:20:37;9.10;99.90
21123;DHT22;10719;48.130;11.630;2024-01-27T13:23:03;10.30;99.90
21123;DHT22;10719;48.130;11.630;2024-01-27T13:25:29;11.70;99.90
21123;DHT22;10719;48.130;11.630;2024-01-27T13:27:55;12.50;99.90
21123;DHT22;10719;48.130;11.630;2024-01-27T13:30:21;14.00;99.90
21123;DHT22;10719;48.130;11.630;2024-01-27T13:32:47;14.50;99.90
21123;DHT22;10719;48.130;11.630;2024-01-27T13:35:13;15.20;99.90
21123;DHT22;10719;48.130;11.630;2024-01-27T13:37:38;15.90;99.90
21123;DHT22;10719;48.130;11.630;2024-01-27T13:40:05;16.30;99.90
21123;DHT22;10719;48.130;11.630;2024-01-27T13:42:33;16.70;99.90
21123;DHT22;10719;48.130;11.630;2024-01-27T13:44:59;16.50;99.90
21123;DHT22;10719;48.130;11.630;2024-01-27T13:47:24;16.70;99.90
21123;DHT22;10719;48.130;11.630;2024-01-27T13:49:50;15.90;99.90
21123;DHT22;10719;48.130;11.630;2024-01-27T13:52:16;15.60;99.90
21123;DHT22;10719;48.130;11.630;2024-01-27T13:54:42;15.20;99.90
21123;DHT22;10719;48.130;11.630;2024-01-27T13:57:08;14.20;99.90
21123;DHT22;10719;48.130;11.630;2024-01-27T13:59:35;13.30;99.90
21123;DHT22;10719;48.130;11.630;2024-01-27T14:02:01;11.90;99.90
21123;DHT22;10719;48.130;11.630;2024-01-27T14:04:27;11.00;99.90
21123;DHT22;10719;48.130;11.630;2024-01-27T14:06:52;10.50;99.90
21123;DHT22;10719;48.130;11.630;2024-01-27T14:09:19;10.10;99.90
21123;DHT22;10719;48.130;11.630;2024-01-27T14:11:45;9.60;99.90
21123;DHT22;10719;48.130;11.630;2024-01-27T14:14:10;9.30;99.90
21123;DHT22;10719;48.130;11.630;2024-01-27T14:16:36;9.50;99.90
21123;DHT22;10719;48.130;11.630;2024-01-27T14:19:02;9.30;99.90
21123;DHT22;10719;48.130;11.630;2024-01-27T14:21:27;9.00;99.90
21123;DHT22;10719;48.130;11.630;2024-01-27T14:23:54;8.80;99.90
21123;DHT22;10719;48.130;11.630;2024-01-27T14:26:27;8.90;99.90
21123;DHT22;10719;48.130;11.630;2024-01-27T14:28:54;9.10;99.90
21123;DHT22;10719;48.130;11.630;2024-01-27T14:31:20;8.70;99.90
21123;DHT22;10719;48.130;11.630;2024-01-27T14:33:46;8.60;99.90
21123;DHT22;10719;48.130;11.630;2024-01-27T14:36:11;8.40;99.90
21123;DHT22;10719;48.130;11.630;2024-01-27T14:38:37;8.10;99.90
21123;DHT22;10719;48.130;11.630;2024-01-27T14:41:03;7.70;99.90
21123;DHT22;10719;48.130;11.630;2024-01-27T14:43:30;7.30;99.90
21123;DHT22;10719;48.130;11.630;2024-01-27T14:45:56;7.10;99.90
21123;DHT22;10719;48.130;11.630;2024-01-27T14:48:21;6.80;99.90
21123;DHT22;10719;48.130;11.630;2024-01-27T14:50:47;6.80;99.90
21123;DHT22;10719;48.130;11.630;2024-01-27T14:53:18;6.70;99.90
21123;DHT22;10719;48.130;11.630;2024-01-27T14:55:44;6.40;99.90
21123;DHT22;10719;48.130;11.630;2024-01-27T14:58:10;6.30;99.90
21123;DHT22;10719;48.130;11.630;2024-01-27T15:00:36;6.20;99.90
21123;DHT22;10719;48.130;11.630;2024-01-27T15:03:05;6.00;99.90
21123;DHT22;10719;48.130;11.630;2024-01-27T15:05:31;5.90;99.90
21123;DHT22;10719;48.130;11.630;2024-01-27T15:08:02;5.70;99.90
21123;DHT22;10719;48.130;11.630;2024-01-27T15:10:27;5.70;99.90
21123;DHT22;10719;48.130;11.630;2024-01-27T15:12:53;5.60;99.90
21123;DHT22;10719;48.130;11.630;2024-01-27T15:15:19;5.50;99.90
21123;DHT22;10719;48.130;11.630;2024-01-27T15:17:45;5.50;99.90
21123;DHT22;10719;48.130;11.630;2024-01-27T15:20:11;5.50;99.90
21123;DHT22;10719;48.130;11.630;2024-01-27T15:22:37;5.50;99.90
21123;DHT22;10719;48.130;11.630;2024-01-27T15:25:03;5.40;99.90
21123;DHT22;10719;48.130;11.630;2024-01-27T15:27:29;5.30;99.90